Terminal Aerodrome Forecast
Issued by NWS Chicago, IL

Home | Current Version | Previous Version | Graphics & Text | Print | Product List | Glossary On
Versions: 1 2 3 4 5 6 7 8 9 10 11 12 13 14 15 16 17 18 19 20 21 22 23 24 25 26 27 28 29 30
000
FTUS43 KLOT 161129
TAFRFD
TAF
KRFD 161129Z 1612/1712 09003KT 4SM -FZRAPL SCT012 OVC020
     FM161400 10003KT 4SM -FZRA BR SCT008 OVC010
     FM161600 10006KT 2SM -SHRA BR SCT004 OVC008
     FM161800 09008KT 1 1/2SM -SHRA BR OVC004
     FM162200 09010KT 1SM SHRA BR OVC003
     FM170200 VRB03KT 3/4SM -RADZ BR OVC003=

USA.gov is the U.S. government's official web portal to all federal, state and local government web resources and services.